Flight Track Log - Related Links

Times and Time Zones

All times are in EDT time to prevent confusion due to time zone crossing. See the N210VJ flight status page for this flight to view local times or setup timezone preferences in your user account.


Time Position Orientation Groundspeed Altitude Reporting Facility
EDT Latitude Longitude Course Direction KTS MPH feet Rate Location/Type
Mon 11:23:57 AM 27.1108 -80.4831 328° Northwest 127 146 5,100  Level Miami Center
Mon 11:24:57 AM 27.1375 -80.5072 321° Northwest 121 139 5,300 200 Climbing Miami Center
Mon 11:25:57 AM 27.1600 -80.5264 323° Northwest 115 132 5,500 200 Climbing Miami Center
Mon 11:26:57 AM 27.1867 -80.5483 324° Northwest 110 127 5,700 200 Climbing Miami Center
Mon 11:27:57 AM 27.2111 -80.5700 322° Northwest 110 127 5,900 150 Climbing Miami Center
Mon 11:28:57 AM 27.2356 -80.5897 324° Northwest 110 127 6,000 150 Climbing Miami Center
Mon 11:29:00 AM 26.6876 -80.0987 328° Northwest  Level Estimated
Mon 11:29:57 AM 27.2561 -80.6089 320° Northwest 110 127 6,200  Level Miami Center
Mon 11:30:57 AM 27.2783 -80.6283 322° Northwest 105 121 6,400 200 Climbing Miami Center
Mon 11:31:57 AM 27.3031 -80.6503 322° Northwest 110 127 6,600 99 Climbing Miami Center
Mon 11:32:58 AM 27.3294 -80.6722 324° Northwest 110 127 6,600  Level Miami Center
Mon 11:33:57 AM 27.3581 -80.6964 323° Northwest 116 133 6,600  Level Miami Center
Mon 11:34:57 AM 27.3825 -80.7183 321° Northwest 121 139 6,600  Level Miami Center
Mon 11:36:09 AM 27.4131 -80.7450 322° Northwest 126 145 6,600  Level Miami Center
Mon 11:37:10 AM 27.4500 -80.7767 323° Northwest 131 151 6,600  Level Miami Center
Mon 11:38:10 AM 27.4783 -80.8033 320° Northwest 136 157 6,600  Level Miami Center
Mon 11:39:10 AM 27.5069 -80.8303 320° Northwest 136 157 6,600  Level Miami Center
Mon 11:40:10 AM 27.5394 -80.8569 324° Northwest 136 157 6,600  Level Miami Center
Mon 11:41:10 AM 27.5681 -80.8839 320° Northwest 136 157 6,600  Level Miami Center
Mon 11:42:10 AM 27.6028 -80.9108 325° Northwest 131 151 6,600  Level Miami Center
Mon 11:43:10 AM 27.6333 -80.9375 322° Northwest 136 157 6,600  Level Miami Center
Mon 11:44:10 AM 27.6597 -80.9619 321° Northwest 136 157 6,600  Level Miami Center
Mon 11:45:10 AM 27.6903 -80.9867 324° Northwest 131 151 6,600  Level Miami Center
Mon 11:46:10 AM 27.7208 -81.0158 320° Northwest 131 151 6,600  Level Miami Center
Mon 11:47:10 AM 27.7514 -81.0428 322° Northwest 131 151 6,600  Level Miami Center
Mon 11:48:10 AM 27.7819 -81.0672 325° Northwest 131 151 6,600  Level Miami Center
Mon 11:49:10 AM 27.8106 -81.0894 326° Northwest 141 162 6,600  Level Miami Center
Mon 11:50:09 AM 27.8389 -81.1164 320° Northwest 134 154 6,600  Level Miami Center
Mon 11:51:09 AM 27.8672 -81.1433 320° Northwest 134 154 6,600  Level Miami Center
Mon 11:52:10 AM 27.8978 -81.1703 322° Northwest 134 154 6,600  Level Miami Center
Mon 11:53:09 AM 27.9283 -81.1972 322° Northwest 134 154 6,600  Level Miami Center
Mon 11:54:10 AM 27.9608 -81.2267 321° Northwest 134 154 6,600  Level Miami Center
Mon 11:54:56 AM 27.9833 -81.2500 318° Northwest 139 160 6,600  Level Orlando TRACON
Mon 11:56:27 AM 28.0333 -81.2833 330° Northwest 141 162 6,600  Level Orlando TRACON
Mon 11:57:27 AM 28.0667 -81.3167 319° Northwest 143 165 6,600  Level Orlando TRACON
Mon 11:58:21 AM 28.1000 -81.3333 336° Northwest 143 165 6,600  Level Orlando TRACON
Mon 11:59:27 AM 28.1333 -81.3667 319° Northwest 142 163 6,600  Level Orlando TRACON
Mon 12:00:27 PM 28.1667 -81.4000 319° Northwest 141 162 6,600  Level Orlando TRACON
Mon 12:01:27 PM 28.1833 -81.4333 300° West 144 166 6,600  Level Orlando TRACON
Mon 12:02:27 PM 28.2167 -81.4500 336° Northwest 143 165 6,600  Level Orlando TRACON
Mon 12:03:28 PM 28.2500 -81.4833 319° Northwest 145 167 6,600  Level Orlando TRACON
Mon 12:04:22 PM 28.2833 -81.5000 336° Northwest 141 162 6,600  Level Orlando TRACON
Mon 12:05:22 PM 28.3167 -81.5333 319° Northwest 141 162 6,600  Level Orlando TRACON
Mon 12:06:23 PM 28.3500 -81.5667 319° Northwest 140 161 6,600  Level Orlando TRACON
Mon 12:07:22 PM 28.3667 -81.5833 319° Northwest 139 160 6,600  Level Orlando TRACON
Mon 12:08:29 PM 28.4000 -81.6167 319° Northwest 139 160 6,600  Level Orlando TRACON
Mon 12:09:29 PM 28.4333 -81.6500 319° Northwest 140 161 6,600  Level Orlando TRACON
Mon 12:10:29 PM 28.4667 -81.6667 336° Northwest 139 160 6,600  Level Orlando TRACON
Mon 12:11:29 PM 28.5000 -81.7000 319° Northwest 138 159 6,600  Level Orlando TRACON
Mon 12:12:29 PM 28.5333 -81.7333 319° Northwest 136 157 6,600  Level Orlando TRACON
Mon 12:13:29 PM 28.5667 -81.7500 336° Northwest 139 160 6,600  Level Orlando TRACON
Mon 12:14:29 PM 28.5833 -81.7833 300° West 139 160 6,600  Level Orlando TRACON
Mon 12:15:24 PM 28.6167 -81.8000 336° Northwest 139 160 6,600  Level Orlando TRACON
Mon 12:17:45 PM 28.6886 -81.8750 318° Northwest 140 161 6,600  Level Jacksonville Center
Mon 12:18:46 PM 28.7178 -81.9006 322° Northwest 140 161 6,600  Level Jacksonville Center
Mon 12:19:47 PM 28.7494 -81.9311 320° Northwest 140 161 6,600  Level Jacksonville Center
Mon 12:20:48 PM 28.7789 -81.9569 322° Northwest 140 161 6,600 -148 Level Jacksonville Center
Mon 12:21:49 PM 28.8144 -81.9872 323° Northwest 147 169 6,300 -295 Descending Jacksonville Center
Mon 12:22:50 PM 28.8481 -82.0178 321° Northwest 153 176 6,000 -310 Descending Jacksonville Center
Mon 12:23:45 PM 28.8797 -82.0461 322° Northwest 153 176 5,700 -362 Descending Jacksonville Center
Mon 12:24:46 PM 28.9111 -82.0742 322° Northwest 152 175 5,300 -375 Descending Jacksonville Center
Mon 12:25:53 PM 28.9447 -82.1072 319° Northwest 151 174 4,900 -344 Descending Jacksonville Center
Mon 12:26:48 PM 28.9761 -82.1356 322° Northwest 149 171 4,600 -362 Descending Jacksonville Center
Mon 12:27:49 PM 29.0097 -82.1636 324° Northwest 143 165 4,200 -331 Descending Jacksonville Center
Mon 12:28:55 PM 29.0414 -82.1967 318° Northwest 139 160 3,900 -236 Descending Jacksonville Center
Mon 12:29:56 PM 29.0664 -82.2275 313° West 136 157 3,700 -224 Descending Jacksonville Center
Mon 12:31:09 PM 29.1000 -82.2653 316° Northwest 135 155 3,400 -134 Descending Jacksonville Center
Mon 12:32:10 PM 29.1231 -82.2958 311° West 130 150 3,400  Level Jacksonville Center
Mon 12:33:11 PM 29.1525 -82.3194 325° Northwest 125 144 3,400  Level Jacksonville Center

Login

Don't have an account? Register now (free) for customized features, flight alerts, and more!